createdAt,value
2022-11-09T00:02:46.021Z,80.96
2022-11-09T00:04:47.178Z,80.13
2022-11-09T00:06:48.241Z,79.09
2022-11-09T00:08:50.001Z,78.57
2022-11-09T00:10:50.994Z,78.22
2022-11-09T00:12:52.851Z,79.52
2022-11-09T00:14:54.516Z,76.8
2022-11-09T00:16:55.732Z,77.18
2022-11-09T00:18:56.680Z,79.68
2022-11-09T00:20:58.391Z,81.42
2022-11-09T00:22:59.631Z,79.82
2022-11-09T00:25:00.690Z,79.29
2022-11-09T00:27:01.807Z,79.42
2022-11-09T00:29:03.097Z,78.92
2022-11-09T00:31:04.397Z,78.65
2022-11-09T00:33:05.690Z,78.19
2022-11-09T00:35:06.849Z,80.52
2022-11-09T00:37:08.377Z,77.57
2022-11-09T00:40:10.612Z,75.86
2022-11-09T00:42:11.780Z,76.39
2022-11-09T00:44:13.417Z,75.88
2022-11-09T00:46:14.632Z,75.29
2022-11-09T00:48:15.984Z,78.46
2022-11-09T00:50:17.752Z,75.89
2022-11-09T00:52:18.891Z,74.95
2022-11-09T00:54:20.416Z,77.75
2022-11-09T00:56:22.099Z,79.09
2022-11-09T00:58:23.631Z,77.18
2022-11-09T01:02:26.837Z,75.59
2022-11-09T01:04:27.812Z,79.33
2022-11-09T01:06:29.429Z,78.7
2022-11-09T01:08:30.700Z,78.03
2022-11-09T01:12:33.252Z,75.17
2022-11-09T01:14:35.105Z,80.07
2022-11-09T01:16:36.028Z,79.01
2022-11-09T01:18:37.773Z,80.83
2022-11-09T01:20:38.902Z,76.89
2022-11-09T01:22:40.748Z,77.97
2022-11-09T01:24:42.392Z,78.12
2022-11-09T01:26:44.246Z,79.96
2022-11-09T01:28:45.466Z,81.28
2022-11-09T01:30:47.010Z,81.46
2022-11-09T01:32:48.841Z,81.73
2022-11-09T01:34:50.732Z,80.93
2022-11-09T01:36:52.058Z,81.16
2022-11-09T01:38:53.418Z,81.07
2022-11-09T01:40:54.409Z,80.99
2022-11-09T01:44:57.996Z,81.85
2022-11-09T01:46:59.396Z,82.06
2022-11-09T01:49:00.455Z,81.78
2022-11-09T01:51:02.062Z,82.11
2022-11-09T01:55:05.639Z,84.06
2022-11-09T01:57:07.185Z,85.43
2022-11-09T01:59:08.264Z,87
2022-11-09T02:01:09.532Z,83.31
2022-11-09T02:03:11.072Z,83.11
2022-11-09T02:05:12.388Z,83.97
2022-11-09T02:07:13.715Z,85.73
2022-11-09T02:09:14.827Z,84.09
2022-11-09T02:11:16.308Z,83.01
2022-11-09T02:13:17.807Z,81.27
2022-11-09T02:15:19.135Z,81.68
2022-11-09T02:17:20.413Z,81.44
2022-11-09T02:19:22.164Z,81.3
2022-11-09T02:21:23.227Z,80.5
2022-11-09T02:23:24.629Z,78.35
2022-11-09T02:25:26.339Z,80.1
2022-11-09T02:27:27.782Z,81.89
2022-11-09T02:29:29.449Z,80.36
2022-11-09T02:31:30.624Z,81.56
2022-11-09T02:33:31.874Z,82.6
2022-11-09T02:37:35.466Z,84.09
2022-11-09T02:39:37.356Z,84.42
2022-11-09T02:41:39.094Z,83.16
2022-11-09T02:43:40.251Z,81.29
2022-11-09T02:45:41.791Z,81.58
2022-11-09T02:47:43.451Z,82.39
2022-11-09T02:49:45.139Z,83.79
2022-11-09T02:51:46.631Z,83.85
2022-11-09T02:53:47.960Z,81
2022-11-09T02:55:49.475Z,81.63
2022-11-09T02:57:51.406Z,81.3
2022-11-09T02:59:52.880Z,80.89
2022-11-09T03:01:53.927Z,84.27
2022-11-09T03:03:54.975Z,86.84
2022-11-09T03:05:56.572Z,88.35
2022-11-09T03:09:58.931Z,89.27
2022-11-09T03:11:59.991Z,90.11
2022-11-09T03:14:01.693Z,88.17
2022-11-09T03:16:03.102Z,86.24
2022-11-09T03:20:05.177Z,89.9
2022-11-09T03:22:06.559Z,88.35
2022-11-09T03:26:09.782Z,85.76
2022-11-09T03:28:11.117Z,87.62
2022-11-09T03:30:12.305Z,86.64
2022-11-09T03:32:14.147Z,87.34
2022-11-09T03:34:15.994Z,87.52
2022-11-09T03:36:17.391Z,87.62
2022-11-09T03:38:18.972Z,87.64
2022-11-09T03:40:20.171Z,89.29
2022-11-09T03:42:21.313Z,89.25
2022-11-09T03:44:23.097Z,89.29
2022-11-09T03:46:24.761Z,87.61
2022-11-09T03:48:26.347Z,86.59
2022-11-09T03:50:27.358Z,86.89
2022-11-09T03:52:28.832Z,87.53
2022-11-09T03:54:30.248Z,87.64
2022-11-09T03:56:31.601Z,87.59
2022-11-09T03:58:33.237Z,87.63
2022-11-09T04:00:34.949Z,87.75
2022-11-09T04:02:36.799Z,87.37
2022-11-09T04:04:37.964Z,87.6
2022-11-09T04:08:41.311Z,88.9
2022-11-09T04:10:43.184Z,89.27
2022-11-09T04:12:44.878Z,88.73
2022-11-09T04:14:46.232Z,88.3
2022-11-09T04:18:49.380Z,89.33
2022-11-09T04:20:50.837Z,89.19
2022-11-09T04:22:52.061Z,89.8
2022-11-09T04:24:53.281Z,89.58
2022-11-09T04:26:55.039Z,89.96
2022-11-09T04:28:56.635Z,90.76
2022-11-09T04:30:57.712Z,90.85
2022-11-09T04:32:59.391Z,90.62
2022-11-09T04:35:01.070Z,90.51
2022-11-09T04:37:02.280Z,91.82
2022-11-09T04:39:03.781Z,92.34
2022-11-09T04:41:05.115Z,91.59
2022-11-09T04:43:06.613Z,91.25
2022-11-09T04:45:07.710Z,91.51
2022-11-09T04:47:08.793Z,91.89
2022-11-09T04:49:10.102Z,92.15
2022-11-09T04:51:11.603Z,92.37
2022-11-09T04:53:12.938Z,92.31
2022-11-09T04:55:14.513Z,92.38
2022-11-09T04:57:15.830Z,92.89
2022-11-09T05:01:17.920Z,93.2
2022-11-09T05:03:19.295Z,93.09
2022-11-09T05:05:20.956Z,93.17
2022-11-09T05:07:22.162Z,93.44
2022-11-09T05:09:24.068Z,93.69
2022-11-09T05:11:25.406Z,93.96
2022-11-09T05:13:26.889Z,94.16
2022-11-09T05:15:28.641Z,94.34
2022-11-09T05:17:30.432Z,94.43
2022-11-09T05:19:32.268Z,94.53
2022-11-09T05:21:33.993Z,94.74
2022-11-09T05:23:35.273Z,94.96
2022-11-09T05:25:36.174Z,94.71
2022-11-09T05:27:37.743Z,94.63
2022-11-09T05:29:39.060Z,94.29
2022-11-09T05:31:40.748Z,94.41
2022-11-09T05:33:42.227Z,94.61
2022-11-09T05:35:43.384Z,94.6
2022-11-09T05:37:44.938Z,94.61
2022-11-09T05:39:46.396Z,94.55
2022-11-09T05:43:49.230Z,94.56
2022-11-09T05:45:50.859Z,94.62
2022-11-09T05:47:52.561Z,94.64
2022-11-09T05:49:53.898Z,94.7
2022-11-09T05:51:55.490Z,94.39
2022-11-09T05:53:57.132Z,94.64
2022-11-09T05:55:58.281Z,94.65
2022-11-09T05:57:59.339Z,94.95
2022-11-09T06:00:00.295Z,95.2
2022-11-09T06:02:01.418Z,95.1
2022-11-09T06:04:02.702Z,95.1
2022-11-09T06:06:08.261Z,95.11
2022-11-09T06:08:05.264Z,95.26
2022-11-09T06:10:07.048Z,95.29
2022-11-09T06:12:08.410Z,95.28
2022-11-09T06:16:11.833Z,95.33
2022-11-09T06:18:13.612Z,95.45
2022-11-09T06:20:14.707Z,95.41
2022-11-09T06:22:16.168Z,95.48
2022-11-09T06:26:19.032Z,95.36
2022-11-09T06:28:20.086Z,95.3
2022-11-09T06:30:21.923Z,95.26
2022-11-09T06:32:23.445Z,95.22
2022-11-09T06:34:25.023Z,95.25
2022-11-09T06:36:26.231Z,95.24
2022-11-09T06:38:27.891Z,95.34
2022-11-09T06:40:29.576Z,95.3
2022-11-09T06:42:30.950Z,95.19
2022-11-09T06:44:31.951Z,95.09
2022-11-09T06:46:33.083Z,95.11
2022-11-09T06:48:34.039Z,94.95
2022-11-09T06:50:35.369Z,95
2022-11-09T06:52:36.621Z,95.26
2022-11-09T06:54:38.001Z,95.33
2022-11-09T06:56:38.938Z,95.23
2022-11-09T06:58:40.112Z,95.14
2022-11-09T07:00:41.258Z,95.07
2022-11-09T07:02:42.751Z,95.08
2022-11-09T07:04:44.215Z,94.98
2022-11-09T07:06:46.284Z,94.88
2022-11-09T07:08:47.838Z,94.81
2022-11-09T07:10:48.901Z,94.78
2022-11-09T07:12:50.425Z,94.81
2022-11-09T07:14:51.600Z,94.88
2022-11-09T07:16:53.075Z,95.1
2022-11-09T07:18:54.749Z,95.18
2022-11-09T07:20:56.523Z,95.35
2022-11-09T07:23:41.378Z,95.42
2022-11-09T07:25:43.305Z,95.59
2022-11-09T07:27:43.733Z,95.74
2022-11-09T07:29:45.594Z,95.78
2022-11-09T07:31:46.809Z,95.82
2022-11-09T07:33:48.239Z,95.86
2022-11-09T07:35:49.197Z,95.92
2022-11-09T07:37:50.619Z,95.9
2022-11-09T07:39:52.108Z,95.91
2022-11-09T07:41:53.546Z,95.87
2022-11-09T07:43:55.067Z,95.81
2022-11-09T07:45:56.709Z,95.75
2022-11-09T07:47:58.011Z,95.78
2022-11-09T07:52:00.725Z,95.81
2022-11-09T07:54:01.809Z,95.81
2022-11-09T07:56:02.730Z,95.67
2022-11-09T07:58:03.928Z,95.61
2022-11-09T08:02:06.591Z,95.59
2022-11-09T08:04:08.168Z,95.57
2022-11-09T08:06:11.079Z,95.6
2022-11-09T08:08:10.457Z,95.62
2022-11-09T08:10:11.486Z,95.74
2022-11-09T08:12:13.196Z,95.69
2022-11-09T08:14:14.682Z,95.55
2022-11-09T08:16:16.339Z,95.46
2022-11-09T08:18:18.172Z,95.46
2022-11-09T08:20:19.649Z,95.49
2022-11-09T08:22:20.652Z,95.44
2022-11-09T08:24:22.347Z,95.47
2022-11-09T08:26:23.432Z,95.55
2022-11-09T08:28:25.058Z,95.56
2022-11-09T08:30:26.487Z,95.64
2022-11-09T08:32:27.976Z,95.28
2022-11-09T08:34:29.462Z,95.34
2022-11-09T08:36:30.555Z,95.21
2022-11-09T08:38:32.195Z,95
2022-11-09T08:40:33.849Z,94.78
2022-11-09T08:42:35.629Z,94.35
2022-11-09T08:44:36.678Z,94.48
2022-11-09T08:46:41.180Z,94.27
2022-11-09T08:50:41.285Z,94.61
2022-11-09T08:52:42.549Z,94.53
2022-11-09T08:54:43.676Z,94.32
2022-11-09T08:56:45.503Z,94.46
2022-11-09T09:00:47.950Z,94.19
2022-11-09T09:02:49.471Z,94.02
2022-11-09T09:04:51.263Z,94.12
2022-11-09T09:06:52.596Z,94.19
2022-11-09T09:08:53.777Z,94.37
2022-11-09T09:10:55.220Z,94.46
2022-11-09T09:12:56.262Z,94.2
2022-11-09T09:14:57.641Z,94.36
2022-11-09T09:16:59.113Z,94.42
2022-11-09T09:19:00.225Z,94.38
2022-11-09T09:21:01.650Z,94.29
2022-11-09T09:23:02.703Z,94.25
2022-11-09T09:25:03.639Z,94.34
2022-11-09T09:27:05.038Z,93.68
2022-11-09T09:29:06.744Z,93.74
2022-11-09T09:31:08.396Z,93.57
2022-11-09T09:33:10.125Z,93.56
2022-11-09T09:35:11.093Z,93.93
2022-11-09T09:37:12.098Z,94.01
2022-11-09T09:39:13.127Z,94.19
2022-11-09T09:43:15.879Z,94.38
2022-11-09T09:45:17.433Z,94.31
2022-11-09T09:47:19.101Z,94.34
2022-11-09T09:49:20.552Z,94.42
2022-11-09T09:51:22.249Z,94.41
2022-11-09T09:53:25.054Z,93.95
2022-11-09T09:55:24.955Z,93.84
2022-11-09T09:59:27.353Z,93.69
2022-11-09T10:01:28.542Z,93.29
2022-11-09T10:03:30.355Z,93.3
2022-11-09T10:05:31.609Z,92.57
2022-11-09T10:07:32.765Z,92.89
2022-11-09T10:09:34.606Z,93.33
2022-11-09T10:11:36.207Z,92.99
2022-11-09T10:15:38.655Z,92.87
2022-11-09T10:17:40.498Z,92.87
2022-11-09T10:19:42.109Z,93
2022-11-09T10:21:43.690Z,92.33
2022-11-09T10:23:45.546Z,92.54
2022-11-09T10:26:03.424Z,92.65
2022-11-09T10:27:48.114Z,91.3
2022-11-09T10:29:49.701Z,91.82
2022-11-09T10:31:50.654Z,91.85
2022-11-09T10:33:51.877Z,90.16
2022-11-09T10:35:52.983Z,89.57
2022-11-09T10:37:54.280Z,89.17
2022-11-09T10:39:56.371Z,89.67
2022-11-09T10:41:57.791Z,88.76
2022-11-09T10:43:59.557Z,87.66
2022-11-09T10:46:01.375Z,88.24
2022-11-09T10:48:02.676Z,88.13
2022-11-09T10:50:03.626Z,88.06
2022-11-09T10:52:05.066Z,86.95
2022-11-09T10:54:06.635Z,88.21
2022-11-09T10:56:07.996Z,87.13
2022-11-09T10:58:08.857Z,85.56
2022-11-09T11:00:10.413Z,86.18
2022-11-09T11:02:11.953Z,86.3
2022-11-09T11:04:12.939Z,85.38
2022-11-09T11:06:14.181Z,86.05
2022-11-09T11:08:14.988Z,86.5
2022-11-09T11:10:16.045Z,84.94
2022-11-09T11:14:22.653Z,83.54
2022-11-09T11:16:19.949Z,82.38
2022-11-09T11:18:21.257Z,83.05
2022-11-09T11:20:22.385Z,83.02
2022-11-09T11:24:25.029Z,81.9
2022-11-09T11:26:26.734Z,83.08
2022-11-09T11:28:27.529Z,82.58
2022-11-09T11:30:28.882Z,83.16
2022-11-09T11:32:29.967Z,83.88
2022-11-09T11:34:53.796Z,84.08
2022-11-09T11:36:34.818Z,83.96
2022-11-09T11:38:36.033Z,84.22
2022-11-09T11:40:37.421Z,83.96
2022-11-09T11:42:39.046Z,83.69
2022-11-09T11:44:40.611Z,83.87
2022-11-09T11:46:42.419Z,84.04
2022-11-09T11:48:43.825Z,83.46
2022-11-09T11:50:44.805Z,83.84
2022-11-09T11:52:45.697Z,83.7
2022-11-09T11:54:47.002Z,84.04
2022-11-09T11:56:48.778Z,83.74
2022-11-09T11:58:49.776Z,83.42
2022-11-09T12:00:50.701Z,83.97
2022-11-09T12:02:52.288Z,83.78
2022-11-09T12:06:54.730Z,84.35
2022-11-09T12:08:55.953Z,83.19
2022-11-09T12:10:57.506Z,82.81
2022-11-09T12:12:58.412Z,83.13
2022-11-09T12:15:00.106Z,83.19
2022-11-09T12:17:01.131Z,82.88
2022-11-09T12:19:02.559Z,82.8
2022-11-09T12:21:04.352Z,83.39
2022-11-09T12:23:05.493Z,82.91
2022-11-09T12:25:06.531Z,82.85
2022-11-09T12:27:30.801Z,83.42
2022-11-09T12:29:09.624Z,83.07
2022-11-09T12:31:10.569Z,82.81
2022-11-09T12:33:11.617Z,82.21
2022-11-09T12:35:13.336Z,83.08
2022-11-09T12:37:14.736Z,83.17
2022-11-09T12:39:16.182Z,82.6
2022-11-09T12:41:17.090Z,80.81
2022-11-09T12:43:19.024Z,81.37
2022-11-09T12:45:20.106Z,81.98
2022-11-09T12:49:22.766Z,81.38
2022-11-09T12:51:23.877Z,81.55
2022-11-09T12:55:26.008Z,80.72
2022-11-09T12:57:27.136Z,79.7
2022-11-09T12:59:28.443Z,80.59
2022-11-09T13:01:29.991Z,79.96
2022-11-09T13:05:32.407Z,80.64
2022-11-09T13:07:33.708Z,80.43
2022-11-09T13:09:44.250Z,81.03
2022-11-09T13:11:36.333Z,80.53
2022-11-09T13:13:37.352Z,81.74
2022-11-09T13:15:38.675Z,81.69
2022-11-09T13:17:39.581Z,81.32
2022-11-09T13:19:41.424Z,81.57
2022-11-09T13:21:42.974Z,81.7
2022-11-09T13:24:00.437Z,81.76
2022-11-09T13:25:45.584Z,82.47
2022-11-09T13:27:46.451Z,82.24
2022-11-09T13:29:51.034Z,82.33
2022-11-09T13:31:49.483Z,82.35
2022-11-09T13:33:51.328Z,82.91
2022-11-09T13:35:52.544Z,83.12
2022-11-09T13:37:53.566Z,82.91
2022-11-09T13:39:54.686Z,83.39
2022-11-09T13:41:55.664Z,83.36
2022-11-09T13:43:56.756Z,83.55
2022-11-09T13:47:58.932Z,83.74
2022-11-09T13:50:00.173Z,83.43
2022-11-09T13:52:01.375Z,83.42
2022-11-09T13:54:02.900Z,83.55
2022-11-09T13:56:04.172Z,83.94
2022-11-09T13:58:05.466Z,83.44
2022-11-09T14:00:06.926Z,83.25
2022-11-09T14:02:07.868Z,83.86
2022-11-09T14:04:09.351Z,83.52
2022-11-09T14:06:10.447Z,84.17
2022-11-09T14:08:11.996Z,84.08
2022-11-09T14:08:55.730Z,83.97
2022-11-09T14:10:57.479Z,84.21
2022-11-09T14:15:00.477Z,84.67
2022-11-09T14:17:01.578Z,85.18
2022-11-09T14:19:02.824Z,85.33
2022-11-09T14:21:03.658Z,85.15
2022-11-09T14:23:04.655Z,85.59
2022-11-09T14:25:06.041Z,85.7
2022-11-09T14:27:07.296Z,86.11
2022-11-09T14:31:10.327Z,86.06
2022-11-09T14:33:11.966Z,86.49
2022-11-09T14:35:13.467Z,86.74
2022-11-09T14:37:15.312Z,87.1
2022-11-09T14:41:18.463Z,87.22
2022-11-09T14:43:20.239Z,87.32
2022-11-09T14:45:21.409Z,87.84
2022-11-09T14:47:22.524Z,88.14
2022-11-09T14:49:23.733Z,88.42
2022-11-09T14:51:25.024Z,88.5
2022-11-09T14:53:26.020Z,88.59
2022-11-09T14:55:27.347Z,88.72
2022-11-09T14:57:28.375Z,88.65
2022-11-09T14:59:29.442Z,89.04
2022-11-09T15:01:31.005Z,89.09
2022-11-09T15:03:32.620Z,89.14
2022-11-09T15:05:33.539Z,89.12
2022-11-09T15:07:35.425Z,89.23
2022-11-09T15:09:36.678Z,89.19
2022-11-09T15:11:37.680Z,89.54
2022-11-09T15:13:39.417Z,89.34
2022-11-09T15:15:40.457Z,89.59
2022-11-09T15:17:42.156Z,89.73
2022-11-09T15:19:43.065Z,89.79
2022-11-09T15:23:46.684Z,89.97
2022-11-09T15:25:48.006Z,89.9
2022-11-09T15:27:49.169Z,89.62
2022-11-09T15:29:50.457Z,89.86
2022-11-09T15:31:51.362Z,89.96
2022-11-09T15:33:52.261Z,90.11
2022-11-09T15:35:53.245Z,90.18
2022-11-09T15:37:54.517Z,90.16
2022-11-09T15:39:55.970Z,90.1
2022-11-09T15:41:57.550Z,89.95
2022-11-09T15:43:59.377Z,89.79
2022-11-09T15:46:00.457Z,89.67
2022-11-09T15:48:01.884Z,89.75
2022-11-09T15:50:02.904Z,89.82
2022-11-09T15:52:04.726Z,89.81
2022-11-09T15:56:07.934Z,90.16
2022-11-09T15:58:09.638Z,90.05
2022-11-09T16:00:15.432Z,90.18
2022-11-09T16:02:13.364Z,90.3
2022-11-09T16:06:16.261Z,90.25
2022-11-09T16:08:17.323Z,90.25
2022-11-09T16:10:18.641Z,90.18
2022-11-09T16:12:20.494Z,90.28
2022-11-09T16:14:21.883Z,90.24
2022-11-09T16:16:23.403Z,90.36
2022-11-09T16:18:26.205Z,90.49
2022-11-09T16:20:26.547Z,90.24
2022-11-09T16:22:28.157Z,90.36
2022-11-09T16:24:29.905Z,90.52
2022-11-09T16:26:31.441Z,90.71
2022-11-09T16:28:32.442Z,90.93
2022-11-09T16:30:33.758Z,90.86
2022-11-09T16:32:34.775Z,90.74
2022-11-09T16:34:36.640Z,90.58
2022-11-09T16:36:39.700Z,90.55
2022-11-09T16:38:39.024Z,89.83
2022-11-09T16:40:40.389Z,89.4
2022-11-09T16:42:41.462Z,89.7
2022-11-09T16:44:42.956Z,89.87
2022-11-09T16:46:44.696Z,89.69
2022-11-09T16:48:46.195Z,88.89
2022-11-09T16:50:47.553Z,89.4
2022-11-09T16:54:51.183Z,89.66
2022-11-09T16:56:52.640Z,89.78
2022-11-09T16:58:54.481Z,89.72
2022-11-09T17:01:09.948Z,89.76
2022-11-09T17:04:57.902Z,90.12
2022-11-09T17:06:58.812Z,89.95
2022-11-09T17:09:00.598Z,90.11
2022-11-09T17:11:02.315Z,90.46
2022-11-09T17:13:03.255Z,90.67
2022-11-09T17:15:04.179Z,90.52
2022-11-09T17:17:06.037Z,90.52
2022-11-09T17:19:06.960Z,90.77
2022-11-09T17:21:07.977Z,90.9
2022-11-09T17:23:09.665Z,90.85
2022-11-09T17:25:11.510Z,91.21
2022-11-09T17:27:12.550Z,91.54
2022-11-09T17:29:13.652Z,91.47
2022-11-09T17:31:15.421Z,91.7
2022-11-09T17:33:17.207Z,91.95
2022-11-09T17:35:18.653Z,91.92
2022-11-09T17:37:20.360Z,92.14
2022-11-09T17:39:21.771Z,91.69
2022-11-09T17:41:22.797Z,91.95
2022-11-09T17:43:24.095Z,92.32
2022-11-09T17:47:27.192Z,92.22
2022-11-09T17:49:28.901Z,92.43
2022-11-09T17:51:30.186Z,92.54
2022-11-09T17:53:31.173Z,92.83
2022-11-09T17:55:32.661Z,92.61
2022-11-09T17:57:33.828Z,92.7
2022-11-09T17:59:35.674Z,92.59
2022-11-09T18:01:40.989Z,92.62
2022-11-09T18:03:37.866Z,92.77
2022-11-09T18:05:39.155Z,92.94
2022-11-09T18:07:40.786Z,92.86
2022-11-09T18:09:42.639Z,92.59
2022-11-09T18:11:43.704Z,92.52
2022-11-09T18:13:44.762Z,92.33
2022-11-09T18:15:46.474Z,92.38
2022-11-09T18:19:49.643Z,92.27
2022-11-09T18:21:51.225Z,92.37
2022-11-09T18:23:52.667Z,92.34
2022-11-09T18:25:53.630Z,92.43
2022-11-09T18:27:55.011Z,92.57
2022-11-09T18:29:56.759Z,92.61
2022-11-09T18:31:58.574Z,92.83
2022-11-09T18:34:00.074Z,92.99
2022-11-09T18:36:00.985Z,92.99
2022-11-09T18:38:02.756Z,92.88
2022-11-09T18:40:04.381Z,92.72
2022-11-09T18:42:05.549Z,92.79
2022-11-09T18:44:06.725Z,92.95
2022-11-09T18:46:08.011Z,92.84
2022-11-09T18:48:09.757Z,92.93
2022-11-09T18:52:12.218Z,92.91
2022-11-09T18:54:13.941Z,93.03
2022-11-09T18:56:14.859Z,93.05
2022-11-09T18:58:16.726Z,93.18
2022-11-09T19:00:18.582Z,93.25
2022-11-09T19:02:19.809Z,93.05
2022-11-09T19:04:21.360Z,93.03
2022-11-09T19:06:22.993Z,92.99
2022-11-09T19:08:24.250Z,92.84
2022-11-09T19:10:25.684Z,92.88
2022-11-09T19:12:27.236Z,93.05
2022-11-09T19:14:28.374Z,93.01
2022-11-09T19:18:30.420Z,93.12
2022-11-09T19:20:32.034Z,93.33
2022-11-09T19:22:33.321Z,93.59
2022-11-09T19:24:35.213Z,93.79
2022-11-09T19:26:36.921Z,94
2022-11-09T19:28:38.441Z,94.31
2022-11-09T19:30:39.662Z,94.62
2022-11-09T19:32:40.901Z,94.75
2022-11-09T19:34:42.271Z,94.94
2022-11-09T19:36:43.237Z,95.01
2022-11-09T19:38:44.411Z,95.1
2022-11-09T19:40:46.203Z,95.13
2022-11-09T19:42:47.683Z,94.95
2022-11-09T19:44:52.173Z,95
2022-11-09T19:46:49.535Z,95.13
2022-11-09T19:50:51.576Z,94.77
2022-11-09T19:52:53.240Z,94.57
2022-11-09T19:54:55.104Z,94.46
2022-11-09T19:56:56.914Z,94.49
2022-11-09T20:01:00.028Z,94.88
2022-11-09T20:03:01.222Z,95.1
2022-11-09T20:05:02.159Z,95.19
2022-11-09T20:07:03.270Z,95.3
2022-11-09T20:09:04.657Z,94.88
2022-11-09T20:11:05.787Z,94.89
2022-11-09T20:13:07.039Z,95.08
2022-11-09T20:15:08.455Z,94.88
2022-11-09T20:17:09.648Z,94.7
2022-11-09T20:19:10.754Z,94.72
2022-11-09T20:21:12.825Z,94.64
2022-11-09T20:23:17.649Z,94.72
2022-11-09T20:25:15.428Z,94.96
2022-11-09T20:27:16.927Z,94.86
2022-11-09T20:29:18.370Z,94.98
2022-11-09T20:31:19.470Z,95.14
2022-11-09T20:33:21.239Z,95.15
2022-11-09T20:35:22.542Z,95.07
2022-11-09T20:37:23.547Z,95.07
2022-11-09T20:39:24.778Z,95.02
2022-11-09T20:41:25.915Z,94.62
2022-11-09T20:43:27.578Z,94.31
2022-11-09T20:45:29.249Z,94.27
2022-11-09T20:49:31.808Z,94.72
2022-11-09T20:51:33.248Z,94.88
2022-11-09T20:53:35.182Z,95.08
2022-11-09T20:55:36.234Z,95.25
2022-11-09T20:58:21.569Z,95.41
2022-11-09T21:00:24.484Z,95.44
2022-11-09T21:02:24.420Z,95.53
2022-11-09T21:04:25.892Z,95.63
2022-11-09T21:06:27.380Z,95.7
2022-11-09T21:08:29.066Z,95.55
2022-11-09T21:10:30.792Z,95.51
2022-11-09T21:12:40.872Z,95.53
2022-11-09T21:14:33.017Z,95.58
2022-11-09T21:16:34.513Z,95.7
2022-11-09T21:18:35.438Z,95.78
2022-11-09T21:20:36.960Z,95.75
2022-11-09T21:22:38.196Z,95.7
2022-11-09T21:24:39.944Z,95.62
2022-11-09T21:26:41.463Z,95.59
2022-11-09T21:28:42.538Z,95.6
2022-11-09T21:30:44.306Z,95.61
2022-11-09T21:32:45.636Z,95.59
2022-11-09T21:36:49.303Z,95.52
2022-11-09T21:38:50.215Z,95.52
2022-11-09T21:40:51.527Z,95.47
2022-11-09T21:42:53.374Z,95.5
2022-11-09T21:44:54.354Z,95.49
2022-11-09T21:46:55.820Z,95.53
2022-11-09T21:48:57.198Z,95.67
2022-11-09T21:50:58.555Z,95.65
2022-11-09T21:52:59.551Z,95.72
2022-11-09T21:55:00.738Z,95.68
2022-11-09T21:57:02.605Z,95.73
2022-11-09T21:59:03.677Z,95.79
2022-11-09T22:01:05.410Z,95.88
2022-11-09T22:03:06.365Z,95.92
2022-11-09T22:05:07.728Z,95.87
2022-11-09T22:09:09.656Z,95.92
2022-11-09T22:11:11.033Z,95.95
2022-11-09T22:13:12.047Z,96.02
2022-11-09T22:15:13.981Z,95.95
2022-11-09T22:19:16.633Z,95.95
2022-11-09T22:21:18.483Z,95.96
2022-11-09T22:23:20.367Z,95.95
2022-11-09T22:25:21.145Z,96.03
2022-11-09T22:27:22.355Z,96.13
2022-11-09T22:29:24.128Z,96.2
2022-11-09T22:31:25.617Z,96.2
2022-11-09T22:33:27.583Z,96.28
2022-11-09T22:35:28.372Z,96.32
2022-11-09T22:37:29.414Z,96.33
2022-11-09T22:39:30.872Z,96.36
2022-11-09T22:41:32.456Z,96.35
2022-11-09T22:43:33.525Z,96.27
2022-11-09T22:45:35.407Z,96.24
2022-11-09T22:47:37.119Z,96.25
2022-11-09T22:49:38.300Z,96.07
2022-11-09T22:51:39.671Z,95.92
2022-11-09T22:53:40.718Z,95.93
2022-11-09T22:55:41.889Z,95.88
2022-11-09T22:57:43.648Z,95.86
2022-11-09T22:59:45.044Z,95.64
2022-11-09T23:01:46.253Z,95.66
2022-11-09T23:03:47.857Z,95.73
2022-11-09T23:07:50.065Z,95.85
2022-11-09T23:09:50.999Z,95.9
2022-11-09T23:11:52.066Z,96.05
2022-11-09T23:13:53.704Z,96.16
2022-11-09T23:17:56.103Z,96.33
2022-11-09T23:19:57.141Z,96.43
2022-11-09T23:21:58.346Z,96.43
2022-11-09T23:24:00.238Z,96.51
2022-11-09T23:26:01.394Z,96.49
2022-11-09T23:28:02.574Z,96.51
2022-11-09T23:30:04.228Z,96.45
2022-11-09T23:32:06.162Z,96.4
2022-11-09T23:34:09.962Z,96.38
2022-11-09T23:36:08.393Z,96.39
2022-11-09T23:38:09.941Z,96.38
2022-11-09T23:40:11.165Z,96.42
2022-11-09T23:42:12.128Z,96.46
2022-11-09T23:44:13.787Z,96.54
2022-11-09T23:46:15.095Z,96.5
2022-11-09T23:48:16.223Z,96.62
2022-11-09T23:50:17.928Z,96.6
2022-11-09T23:52:19.659Z,96.61
2022-11-09T23:54:20.855Z,96.63
2022-11-09T23:56:22.051Z,96.7
